createdAt,value
2023-05-02T00:01:25.449Z,13.13
2023-05-02T00:03:52.104Z,13.15
2023-05-02T00:06:19.236Z,13.30
2023-05-02T00:08:45.928Z,13.27
2023-05-02T00:11:12.548Z,13.29
2023-05-02T00:13:39.177Z,13.18
2023-05-02T00:16:06.321Z,13.33
2023-05-02T00:18:32.988Z,13.36
2023-05-02T00:20:59.631Z,12.78
2023-05-02T00:23:26.271Z,13.15
2023-05-02T00:25:52.848Z,12.86
2023-05-02T00:28:19.423Z,13.20
2023-05-02T00:30:46.813Z,12.33
2023-05-02T00:33:15.224Z,13.34
2023-05-02T00:35:42.076Z,13.36
2023-05-02T00:38:08.724Z,13.02
2023-05-02T00:40:49.768Z,13.21
2023-05-02T00:43:19.202Z,13.06
2023-05-02T00:45:46.674Z,13.18
2023-05-02T00:48:14.080Z,12.86
2023-05-02T00:50:43.241Z,13.35
2023-05-02T00:53:10.859Z,13.12
2023-05-02T00:55:37.957Z,12.87
2023-05-02T00:58:14.378Z,13.32
2023-05-02T01:01:02.280Z,13.30
2023-05-02T01:03:47.769Z,13.34
2023-05-02T01:06:36.789Z,12.93
2023-05-02T01:09:40.972Z,13.33
2023-05-02T01:12:20.111Z,13.22
2023-05-02T01:14:52.861Z,13.35
2023-05-02T01:17:20.555Z,12.96
2023-05-02T01:19:54.905Z,13.38
2023-05-02T01:22:24.731Z,13.22
2023-05-02T01:25:20.882Z,13.24
2023-05-02T01:27:56.638Z,13.24
2023-05-02T01:30:27.061Z,13.23
2023-05-02T01:32:55.931Z,12.88
2023-05-02T01:35:24.303Z,13.09
2023-05-02T01:37:53.478Z,13.08
2023-05-02T01:40:22.880Z,13.00
2023-05-02T01:42:51.975Z,12.92
2023-05-02T01:45:21.321Z,13.04
2023-05-02T01:47:48.961Z,13.05
2023-05-02T01:50:20.344Z,12.80
2023-05-02T01:52:49.781Z,13.02
2023-05-02T01:55:18.423Z,13.01
2023-05-02T01:57:47.157Z,13.02
2023-05-02T02:00:17.711Z,12.85
2023-05-02T02:02:46.566Z,12.78
2023-05-02T02:05:14.258Z,12.26
2023-05-02T02:07:40.793Z,12.78
2023-05-02T02:10:07.941Z,12.62
2023-05-02T02:12:43.809Z,12.78
2023-05-02T02:15:21.888Z,12.58
2023-05-02T02:18:01.154Z,12.79
2023-05-02T02:20:32.512Z,12.82
2023-05-02T02:23:03.396Z,12.46
2023-05-02T02:25:30.149Z,13.01
2023-05-02T02:27:57.355Z,12.50
2023-05-02T02:30:24.005Z,12.15
2023-05-02T02:32:50.801Z,12.78
2023-05-02T02:35:17.523Z,12.62
2023-05-02T02:37:57.954Z,12.63
2023-05-02T02:40:37.354Z,12.17
2023-05-02T02:43:15.688Z,12.57
2023-05-02T02:46:03.281Z,12.50
2023-05-02T02:48:34.986Z,12.39
2023-05-02T02:51:07.293Z,12.37
2023-05-02T02:53:45.156Z,12.37
2023-05-02T02:56:16.678Z,12.17
2023-05-02T02:59:29.429Z,12.14
2023-05-02T03:02:10.010Z,11.72
2023-05-02T03:04:42.314Z,11.66
2023-05-02T03:07:09.595Z,11.58
2023-05-02T03:09:46.112Z,11.54
2023-05-02T03:12:13.487Z,11.41
2023-05-02T03:14:40.844Z,11.12
2023-05-02T03:17:12.032Z,11.31
2023-05-02T03:19:38.985Z,11.20
2023-05-02T03:22:06.134Z,11.13
2023-05-02T03:24:32.691Z,10.99
2023-05-02T03:26:59.731Z,11.26
2023-05-02T03:29:26.984Z,11.13
2023-05-02T03:31:53.601Z,11.08
2023-05-02T03:34:22.113Z,10.98
2023-05-02T03:36:48.884Z,11.02
2023-05-02T03:39:15.751Z,11.00
2023-05-02T03:41:43.940Z,10.73
2023-05-02T03:44:10.785Z,10.22
2023-05-02T03:46:37.752Z,10.47
2023-05-02T03:49:04.420Z,10.31
2023-05-02T03:51:30.989Z,10.25
2023-05-02T03:53:58.608Z,10.44
2023-05-02T03:56:25.204Z,10.47
2023-05-02T03:58:51.756Z,10.33
2023-05-02T04:01:18.496Z,10.35
2023-05-02T04:03:45.283Z,9.94
2023-05-02T04:06:13.372Z,10.06
2023-05-02T04:08:40.139Z,10.09
2023-05-02T04:11:07.319Z,9.65
2023-05-02T04:13:33.986Z,9.62
2023-05-02T04:16:00.683Z,9.94
2023-05-02T04:18:27.534Z,9.93
2023-05-02T04:20:55.503Z,9.80
2023-05-02T04:23:22.145Z,9.68
2023-05-02T04:25:53.766Z,10.17
2023-05-02T04:28:23.427Z,10.14
2023-05-02T04:30:50.406Z,10.07
2023-05-02T04:33:18.639Z,9.44
2023-05-02T04:35:45.417Z,9.90
2023-05-02T04:38:12.037Z,9.06
2023-05-02T04:40:38.889Z,10.31
2023-05-02T04:43:05.453Z,10.25
2023-05-02T04:45:32.704Z,10.08
2023-05-02T04:47:59.434Z,10.09
2023-05-02T04:50:28.373Z,10.38
2023-05-02T04:52:55.048Z,10.27
2023-05-02T04:55:21.795Z,10.05
2023-05-02T04:57:48.479Z,10.41
2023-05-02T05:00:15.644Z,10.30
2023-05-02T05:02:43.439Z,10.48
2023-05-02T05:05:10.310Z,10.30
2023-05-02T05:07:36.954Z,10.61
2023-05-02T05:10:03.996Z,10.21
2023-05-02T05:12:30.613Z,10.21
2023-05-02T05:14:57.503Z,10.32
2023-05-02T05:17:24.174Z,10.33
2023-05-02T05:19:50.874Z,10.48
2023-05-02T05:22:17.399Z,10.50
2023-05-02T05:24:51.867Z,10.48
2023-05-02T05:27:18.526Z,10.43
2023-05-02T05:29:45.203Z,10.23
2023-05-02T05:32:11.839Z,9.78
2023-05-02T05:34:38.591Z,9.78
2023-05-02T05:37:05.239Z,9.73
2023-05-02T05:39:32.781Z,9.49
2023-05-02T05:41:59.961Z,9.86
2023-05-02T05:44:26.696Z,10.04
2023-05-02T05:46:53.349Z,10.23
2023-05-02T05:49:19.934Z,8.80
2023-05-02T05:51:47.812Z,10.24
2023-05-02T05:54:14.454Z,10.30
2023-05-02T05:56:41.143Z,10.34
2023-05-02T05:59:08.077Z,10.05
2023-05-02T06:01:36.012Z,9.75
2023-05-02T06:04:06.784Z,9.93
2023-05-02T06:06:33.776Z,9.60
2023-05-02T06:09:00.980Z,10.09
2023-05-02T06:11:27.803Z,10.01
2023-05-02T06:13:54.466Z,10.01
2023-05-02T06:16:21.252Z,9.87
2023-05-02T06:18:48.013Z,10.26
2023-05-02T06:21:14.625Z,10.17
2023-05-02T06:23:41.262Z,10.49
2023-05-02T06:26:07.916Z,10.46
2023-05-02T06:28:34.582Z,10.47
2023-05-02T06:31:03.329Z,10.18
2023-05-02T06:33:30.912Z,10.11
2023-05-02T06:35:59.220Z,9.94
2023-05-02T06:38:27.297Z,10.60
2023-05-02T06:40:54.025Z,10.62
2023-05-02T06:43:20.698Z,10.66
2023-05-02T06:45:47.298Z,10.73
2023-05-02T06:48:14.151Z,10.62
2023-05-02T06:50:40.851Z,10.52
2023-05-02T06:53:07.442Z,10.41
2023-05-02T06:55:34.048Z,10.41
2023-05-02T06:58:00.978Z,10.11
2023-05-02T07:00:27.556Z,10.12
2023-05-02T07:02:54.456Z,10.29
2023-05-02T07:05:21.351Z,10.29
2023-05-02T07:07:47.886Z,10.47
2023-05-02T07:10:14.440Z,10.57
2023-05-02T07:12:41.220Z,10.59
2023-05-02T07:15:08.282Z,10.53
2023-05-02T07:17:34.941Z,10.97
2023-05-02T07:20:02.366Z,10.95
2023-05-02T07:22:29.232Z,11.27
2023-05-02T07:25:03.462Z,11.02
2023-05-02T07:27:30.301Z,11.27
2023-05-02T07:29:56.855Z,11.54
2023-05-02T07:32:26.111Z,11.11
2023-05-02T07:34:57.153Z,11.15
2023-05-02T07:37:24.029Z,11.21
2023-05-02T07:39:50.738Z,11.77
2023-05-02T07:42:17.350Z,10.95
2023-05-02T07:44:43.996Z,11.07
2023-05-02T07:47:10.852Z,11.53
2023-05-02T07:49:37.683Z,11.72
2023-05-02T07:52:04.802Z,11.47
2023-05-02T07:54:31.610Z,11.85
2023-05-02T07:57:02.423Z,11.82
2023-05-02T07:59:31.215Z,11.74
2023-05-02T08:01:58.011Z,11.58
2023-05-02T08:04:25.103Z,11.77
2023-05-02T08:06:51.946Z,12.15
2023-05-02T08:09:18.585Z,12.01
2023-05-02T08:11:45.375Z,11.59
2023-05-02T08:14:11.911Z,11.92
2023-05-02T08:16:38.975Z,11.85
2023-05-02T08:19:05.887Z,12.26
2023-05-02T08:21:32.775Z,12.19
2023-05-02T08:23:59.906Z,12.60
2023-05-02T08:26:27.446Z,12.11
2023-05-02T08:28:55.149Z,12.37
2023-05-02T08:31:22.129Z,12.92
2023-05-02T08:33:48.740Z,13.15
2023-05-02T08:36:17.048Z,13.19
2023-05-02T08:38:44.871Z,13.23
2023-05-02T08:41:20.635Z,13.81
2023-05-02T08:43:47.685Z,13.79
2023-05-02T08:46:17.469Z,13.44
2023-05-02T08:48:48.287Z,13.52
2023-05-02T08:51:16.986Z,13.75
2023-05-02T08:53:44.175Z,13.26
2023-05-02T08:56:12.744Z,13.72
2023-05-02T08:58:40.779Z,13.27
2023-05-02T09:01:19.243Z,13.22
2023-05-02T09:03:47.721Z,13.22
2023-05-02T09:06:19.552Z,13.83
2023-05-02T09:08:49.481Z,13.63
2023-05-02T09:11:17.126Z,14.00
2023-05-02T09:13:48.801Z,14.42
2023-05-02T09:16:18.102Z,14.65
2023-05-02T09:18:53.057Z,14.38
2023-05-02T09:21:22.080Z,13.70
2023-05-02T09:23:50.859Z,13.72
2023-05-02T09:26:35.303Z,13.74
2023-05-02T09:29:04.315Z,14.24
2023-05-02T09:34:14.136Z,14.67
2023-05-02T09:36:45.662Z,14.60
2023-05-02T09:39:17.484Z,14.36
2023-05-02T09:41:46.896Z,15.17
2023-05-02T09:44:20.471Z,15.39
2023-05-02T09:46:49.159Z,15.31
2023-05-02T09:49:19.618Z,15.32
2023-05-02T09:51:47.799Z,14.84
2023-05-02T09:54:36.448Z,14.59
2023-05-02T09:57:03.914Z,14.84
2023-05-02T09:59:30.765Z,14.06
2023-05-02T10:02:03.330Z,14.17
2023-05-02T10:04:32.908Z,14.93
2023-05-02T10:07:00.457Z,14.67
2023-05-02T10:09:29.998Z,14.63
2023-05-02T10:11:56.983Z,14.31
2023-05-02T10:14:27.826Z,14.42
2023-05-02T10:17:12.729Z,14.22
2023-05-02T10:19:44.408Z,13.82
2023-05-02T10:22:12.769Z,13.77
2023-05-02T10:24:40.806Z,14.02
2023-05-02T10:27:08.623Z,13.66
2023-05-02T10:29:36.366Z,13.19
2023-05-02T10:32:04.845Z,13.72
2023-05-02T10:34:33.412Z,13.89
2023-05-02T10:37:02.363Z,14.49
2023-05-02T10:39:30.026Z,15.64
2023-05-02T10:41:59.227Z,15.76
2023-05-02T10:44:40.733Z,17.16
2023-05-02T10:47:24.635Z,17.04
2023-05-02T10:49:51.786Z,15.50
2023-05-02T10:52:38.368Z,15.80
2023-05-02T10:55:19.875Z,18.32
2023-05-02T10:58:02.069Z,20.28
2023-05-02T11:00:33.975Z,20.57
2023-05-02T11:03:01.835Z,19.29
2023-05-02T11:05:28.850Z,17.79
2023-05-02T11:08:19.303Z,17.13
2023-05-02T11:10:47.434Z,16.54
2023-05-02T11:13:14.136Z,16.45
2023-05-02T11:15:41.023Z,15.44
2023-05-02T11:18:10.187Z,15.81
2023-05-02T11:20:39.695Z,15.25
2023-05-02T11:23:15.606Z,15.69
2023-05-02T11:25:44.139Z,16.02
2023-05-02T11:28:40.394Z,16.09
2023-05-02T11:31:27.019Z,15.94
2023-05-02T11:33:57.935Z,16.90
2023-05-02T11:36:32.522Z,18.00
2023-05-02T11:39:00.379Z,17.86
2023-05-02T11:41:43.062Z,17.11
2023-05-02T11:44:10.975Z,15.99
2023-05-02T11:46:39.682Z,15.31
2023-05-02T11:49:09.657Z,15.27
2023-05-02T11:51:37.555Z,15.26
2023-05-02T11:54:04.678Z,14.85
2023-05-02T11:56:31.660Z,14.52
2023-05-02T11:59:03.617Z,15.38
2023-05-02T12:01:30.694Z,15.70
2023-05-02T12:04:04.612Z,15.51
2023-05-02T12:06:31.559Z,15.71
2023-05-02T12:09:14.268Z,16.20
2023-05-02T12:11:41.443Z,16.78
2023-05-02T12:14:08.229Z,17.09
2023-05-02T12:16:35.464Z,17.10
2023-05-02T12:19:02.581Z,16.28
2023-05-02T12:21:30.232Z,15.57
2023-05-02T12:23:57.595Z,15.42
2023-05-02T12:26:27.710Z,15.46
2023-05-02T12:28:55.253Z,14.71
2023-05-02T12:31:22.902Z,14.78
2023-05-02T12:33:51.156Z,15.07
2023-05-02T12:36:19.426Z,15.26
2023-05-02T12:38:55.084Z,15.42
2023-05-02T12:41:43.914Z,15.57
2023-05-02T12:44:10.671Z,15.34
2023-05-02T12:46:37.648Z,15.32
2023-05-02T12:49:06.399Z,14.71
2023-05-02T12:51:34.622Z,14.61
2023-05-02T12:54:01.606Z,15.02
2023-05-02T12:56:32.390Z,15.22
2023-05-02T12:59:05.267Z,16.31
2023-05-02T13:01:34.553Z,16.57
2023-05-02T13:04:01.507Z,15.52
2023-05-02T13:06:28.257Z,15.26
2023-05-02T13:08:54.907Z,15.30
2023-05-02T13:11:21.654Z,15.12
2023-05-02T13:13:48.368Z,15.49
2023-05-02T13:16:15.077Z,14.45
2023-05-02T13:18:42.068Z,14.74
2023-05-02T13:21:08.754Z,13.96
2023-05-02T13:23:35.332Z,16.08
2023-05-02T13:26:01.918Z,17.44
2023-05-02T13:28:30.515Z,16.77
2023-05-02T13:30:57.161Z,16.19
2023-05-02T13:33:23.859Z,15.71
2023-05-02T13:35:50.551Z,16.52
2023-05-02T13:38:17.096Z,17.16
2023-05-02T13:40:43.808Z,16.57
2023-05-02T13:43:10.352Z,16.25
2023-05-02T13:45:37.088Z,16.13
2023-05-02T13:48:03.977Z,15.93
2023-05-02T13:50:30.704Z,16.03
2023-05-02T13:52:57.270Z,15.91
2023-05-02T13:55:23.930Z,15.93
2023-05-02T13:57:50.654Z,15.11
2023-05-02T14:00:17.944Z,14.16
2023-05-02T14:02:47.126Z,14.14
2023-05-02T14:05:14.146Z,14.12
2023-05-02T14:07:40.753Z,13.99
2023-05-02T14:10:07.997Z,14.14
2023-05-02T14:12:34.543Z,14.21
2023-05-02T14:15:01.588Z,13.85
2023-05-02T14:17:28.182Z,13.36
2023-05-02T14:19:54.885Z,13.42
2023-05-02T14:22:21.442Z,14.00
2023-05-02T14:24:48.048Z,13.91
2023-05-02T14:27:18.544Z,14.17
2023-05-02T14:29:48.806Z,14.70
2023-05-02T14:32:15.490Z,14.75
2023-05-02T14:34:42.233Z,14.36
2023-05-02T14:37:09.395Z,14.29
2023-05-02T14:39:36.998Z,13.84
2023-05-02T14:42:04.578Z,13.64
2023-05-02T14:44:31.832Z,13.84
2023-05-02T14:46:58.633Z,13.98
2023-05-02T14:49:25.641Z,14.58
2023-05-02T14:51:52.652Z,14.80
2023-05-02T14:54:20.430Z,15.07
2023-05-02T14:56:48.357Z,15.08
2023-05-02T14:59:14.975Z,16.13
2023-05-02T15:01:41.650Z,16.78
2023-05-02T15:04:08.770Z,18.09
2023-05-02T15:06:36.350Z,20.47
2023-05-02T15:09:03.607Z,22.06
2023-05-02T15:11:30.436Z,20.80
2023-05-02T15:13:59.211Z,19.56
2023-05-02T15:16:27.580Z,18.62
2023-05-02T15:18:54.384Z,17.61
2023-05-02T15:21:21.512Z,16.96
2023-05-02T15:23:48.136Z,17.50
2023-05-02T15:26:14.777Z,20.66
2023-05-02T15:28:41.601Z,23.31
2023-05-02T15:31:08.326Z,23.67
2023-05-02T15:33:34.954Z,23.28
2023-05-02T15:36:01.645Z,19.94
2023-05-02T15:38:28.306Z,18.14
2023-05-02T15:41:00.220Z,17.72
2023-05-02T15:43:27.283Z,19.59
2023-05-02T15:45:56.426Z,20.66
2023-05-02T15:48:24.256Z,18.09
2023-05-02T15:50:52.559Z,20.14
2023-05-02T15:53:22.260Z,20.36
2023-05-02T15:55:50.606Z,20.50
2023-05-02T15:58:17.828Z,21.77
2023-05-02T16:00:45.256Z,22.63
2023-05-02T16:03:15.736Z,24.10
2023-05-02T16:05:42.509Z,23.34
2023-05-02T16:08:09.565Z,21.67
2023-05-02T16:10:36.774Z,20.40
2023-05-02T16:13:03.467Z,17.96
2023-05-02T16:15:30.634Z,17.30
2023-05-02T16:17:57.518Z,17.21
2023-05-02T16:20:26.017Z,17.22
2023-05-02T16:22:52.665Z,16.52
2023-05-02T16:25:19.532Z,15.50
2023-05-02T16:27:46.076Z,15.02
2023-05-02T16:30:13.309Z,14.87
2023-05-02T16:32:40.898Z,14.68
2023-05-02T16:35:10.854Z,14.51
2023-05-02T16:37:37.577Z,14.27
2023-05-02T16:40:06.195Z,13.69
2023-05-02T16:42:33.064Z,13.92
2023-05-02T16:45:00.148Z,14.06
2023-05-02T16:47:28.124Z,13.78
2023-05-02T16:49:56.063Z,13.81
2023-05-02T16:52:23.014Z,13.58
2023-05-02T16:54:49.959Z,13.72
2023-05-02T16:57:19.911Z,13.83
2023-05-02T16:59:51.299Z,13.40
2023-05-02T17:02:21.253Z,13.15
2023-05-02T17:04:49.381Z,13.45
2023-05-02T17:07:16.471Z,13.44
2023-05-02T17:09:44.444Z,13.47
2023-05-02T17:12:12.115Z,13.41
2023-05-02T17:14:41.300Z,13.52
2023-05-02T17:17:08.337Z,12.96
2023-05-02T17:19:36.059Z,12.66
2023-05-02T17:22:04.382Z,12.71
2023-05-02T17:24:31.079Z,12.79
2023-05-02T17:26:57.805Z,13.03
2023-05-02T17:29:25.996Z,12.82
2023-05-02T17:31:52.710Z,12.14
2023-05-02T17:34:19.310Z,11.97
2023-05-02T17:36:46.517Z,12.38
2023-05-02T17:39:13.715Z,12.43
2023-05-02T17:41:40.394Z,12.34
2023-05-02T17:44:07.151Z,12.37
2023-05-02T17:46:34.007Z,12.46
2023-05-02T17:49:01.130Z,12.48
2023-05-02T17:51:28.157Z,12.24
2023-05-02T17:53:55.076Z,12.27
2023-05-02T17:56:21.893Z,12.36
2023-05-02T17:58:48.739Z,12.20
2023-05-02T18:01:15.885Z,11.79
2023-05-02T18:03:42.774Z,12.07
2023-05-02T18:06:09.575Z,12.16
2023-05-02T18:08:36.232Z,11.99
2023-05-02T18:11:03.613Z,12.09
2023-05-02T18:13:30.905Z,12.02
2023-05-02T18:16:04.874Z,11.74
2023-05-02T18:18:33.222Z,11.82
2023-05-02T18:20:59.851Z,11.94
2023-05-02T18:23:26.467Z,11.95
2023-05-02T18:25:53.060Z,11.77
2023-05-02T18:28:19.860Z,11.81
2023-05-02T18:30:46.759Z,11.61
2023-05-02T18:33:13.442Z,11.58
2023-05-02T18:35:46.903Z,11.27
2023-05-02T18:38:13.653Z,11.06
2023-05-02T18:40:40.458Z,10.83
2023-05-02T18:43:07.044Z,11.13
2023-05-02T18:45:34.978Z,11.25
2023-05-02T18:48:03.126Z,10.98
2023-05-02T18:50:29.769Z,11.00
2023-05-02T18:52:56.447Z,10.84
2023-05-02T18:55:25.277Z,11.01
2023-05-02T18:57:52.090Z,11.19
2023-05-02T19:00:20.484Z,10.86
2023-05-02T19:02:47.936Z,11.01
2023-05-02T19:05:15.219Z,11.18
2023-05-02T19:07:42.508Z,11.11
2023-05-02T19:10:11.229Z,11.03
2023-05-02T19:12:38.272Z,10.89
2023-05-02T19:15:06.840Z,10.75
2023-05-02T19:17:34.062Z,10.72
2023-05-02T19:20:00.755Z,10.70
2023-05-02T19:22:27.936Z,10.81
2023-05-02T19:24:54.681Z,10.86
2023-05-02T19:27:21.270Z,10.88
2023-05-02T19:29:47.891Z,10.87
2023-05-02T19:32:15.027Z,11.01
2023-05-02T19:34:41.738Z,11.02
2023-05-02T19:37:08.490Z,11.09
2023-05-02T19:39:37.442Z,10.83
2023-05-02T19:42:04.468Z,11.16
2023-05-02T19:44:31.082Z,10.96
2023-05-02T19:46:57.646Z,10.89
2023-05-02T19:49:24.193Z,10.74
2023-05-02T19:51:50.820Z,10.94
2023-05-02T19:54:17.394Z,10.76
2023-05-02T19:56:44.117Z,10.91
2023-05-02T19:59:10.662Z,10.88
2023-05-02T20:01:37.531Z,10.92
2023-05-02T20:04:04.322Z,10.84
2023-05-02T20:06:32.193Z,10.69
2023-05-02T20:08:58.973Z,10.57
2023-05-02T20:11:26.283Z,10.46
2023-05-02T20:13:54.211Z,9.93
2023-05-02T20:16:21.343Z,9.60
2023-05-02T20:18:48.377Z,9.72
2023-05-02T20:21:15.118Z,9.79
2023-05-02T20:23:43.659Z,9.83
2023-05-02T20:26:11.718Z,9.43
2023-05-02T20:28:38.246Z,9.39
2023-05-02T20:31:05.027Z,9.16
2023-05-02T20:33:43.544Z,9.45
2023-05-02T20:36:11.249Z,9.39
2023-05-02T20:38:42.672Z,9.16
2023-05-02T20:41:12.926Z,9.08
2023-05-02T20:43:40.535Z,9.09
2023-05-02T20:46:16.601Z,9.17
2023-05-02T20:48:43.367Z,9.16
2023-05-02T20:51:10.036Z,9.05
2023-05-02T20:53:37.739Z,8.92
2023-05-02T20:56:05.074Z,8.92
2023-05-02T20:58:31.766Z,8.91
2023-05-02T21:00:58.814Z,8.90
2023-05-02T21:03:27.464Z,8.93
2023-05-02T21:05:55.976Z,8.84
2023-05-02T21:08:23.184Z,8.87
2023-05-02T21:10:50.036Z,8.85
2023-05-02T21:13:16.577Z,8.85
2023-05-02T21:15:43.334Z,8.57
2023-05-02T21:18:09.979Z,8.70
2023-05-02T21:20:38.344Z,8.74
2023-05-02T21:23:05.026Z,8.45
2023-05-02T21:25:31.704Z,8.64
2023-05-02T21:27:58.257Z,8.61
2023-05-02T21:30:25.154Z,8.66
2023-05-02T21:32:51.821Z,8.45
2023-05-02T21:35:18.461Z,8.64
2023-05-02T21:37:45.073Z,8.14
2023-05-02T21:40:12.336Z,8.24
2023-05-02T21:42:39.043Z,8.40
2023-05-02T21:45:06.665Z,8.44
2023-05-02T21:47:33.347Z,8.05
2023-05-02T21:50:00.369Z,8.32
2023-05-02T21:52:27.411Z,8.37
2023-05-02T21:54:54.314Z,8.36
2023-05-02T21:57:21.394Z,8.24
2023-05-02T21:59:48.338Z,8.25
2023-05-02T22:02:15.037Z,8.07
2023-05-02T22:04:41.661Z,8.14
2023-05-02T22:07:08.211Z,8.09
2023-05-02T22:09:34.757Z,7.99
2023-05-02T22:12:01.430Z,7.94
2023-05-02T22:14:37.597Z,7.96
2023-05-02T22:17:10.671Z,7.57
2023-05-02T22:19:37.716Z,7.94
2023-05-02T22:22:05.605Z,7.96
2023-05-02T22:24:32.237Z,7.90
2023-05-02T22:26:58.818Z,7.05
2023-05-02T22:29:25.364Z,7.84
2023-05-02T22:31:52.406Z,7.80
2023-05-02T22:34:19.365Z,7.90
2023-05-02T22:36:46.345Z,7.85
2023-05-02T22:39:15.761Z,7.77
2023-05-02T22:41:43.092Z,7.71
2023-05-02T22:44:09.824Z,7.61
2023-05-02T22:46:38.422Z,7.54
2023-05-02T22:49:07.827Z,7.65
2023-05-02T22:51:34.455Z,7.65
2023-05-02T22:54:02.082Z,7.58
2023-05-02T22:56:28.669Z,7.68
2023-05-02T22:58:55.239Z,7.57
2023-05-02T23:01:21.966Z,7.28
2023-05-02T23:03:49.514Z,7.49
2023-05-02T23:06:16.916Z,7.46
2023-05-02T23:08:43.516Z,7.42
2023-05-02T23:11:10.159Z,7.22
2023-05-02T23:13:36.848Z,7.46
2023-05-02T23:16:04.418Z,7.44
2023-05-02T23:18:31.106Z,7.06
2023-05-02T23:20:57.857Z,7.37
2023-05-02T23:23:27.225Z,7.36
2023-05-02T23:25:53.907Z,7.35
2023-05-02T23:28:20.619Z,7.38
2023-05-02T23:30:47.758Z,7.33
2023-05-02T23:33:15.267Z,7.16
2023-05-02T23:35:42.063Z,6.98
2023-05-02T23:38:08.692Z,7.26
2023-05-02T23:40:35.685Z,6.89
2023-05-02T23:43:02.353Z,7.20
2023-05-02T23:45:28.969Z,7.09
2023-05-02T23:47:55.990Z,7.26
2023-05-02T23:50:22.633Z,7.10
2023-05-02T23:52:49.176Z,7.17
2023-05-02T23:55:15.878Z,6.83
2023-05-02T23:57:42.745Z,7.13
